Time;durP1;ratioP1;P1;durP2;ratioP2;P2;SDS_P1;SDS_P2;PMS_P1;PMS_P2;Temp;Humidity;BMP_temperature;BMP_pressure;BME280_temperature;BME280_humidity;BME280_pressure;Samples;Min_cycle;Max_cycle;Signal;HPM_P1;HPM_P2
2022/10/09 00:04:27;;;;;;;3.17;2.00;;;;;;;9.21;100.00;101261.58;5071760;58;1139050;-69
2022/10/09 00:09:33;;;;;;;5.03;2.43;;;;;;;9.20;100.00;101277.03;5063290;58;1139097;-65
2022/10/09 00:14:38;;;;;;;6.07;2.50;;;;;;;9.17;100.00;101281.16;5048644;58;1139122;-65
2022/10/09 00:19:44;;;;;;;7.57;2.77;;;;;;;9.11;100.00;101295.59;5048397;58;1139040;-67
2022/10/09 00:24:51;;;;;;;8.47;2.77;;;;;;;9.07;100.00;101293.22;5048778;58;1139166;-67
2022/10/09 00:29:57;;;;;;;7.43;2.50;;;;;;;9.03;100.00;101303.56;5037871;58;1139151;-70
2022/10/09 00:35:04;;;;;;;10.53;2.30;;;;;;;8.99;100.00;101302.92;5048536;57;1139224;-69
2022/10/09 00:40:10;;;;;;;5.63;2.53;;;;;;;8.97;100.00;101311.39;5055855;57;1141041;-68
2022/10/09 00:45:22;;;;;;;9.97;1.93;;;;;;;8.92;100.00;101313.91;5083941;57;1139093;-68
2022/10/09 00:50:47;;;;;;;10.40;2.27;;;;;;;8.92;100.00;101313.91;5069885;57;1138979;-65
2022/10/09 00:55:53;;;;;;;4.67;2.20;;;;;;;8.88;100.00;101308.41;5047697;58;1141246;-67
2022/10/09 01:00:59;;;;;;;7.20;2.20;;;;;;;8.83;100.00;101317.94;5048355;58;1139306;-67
2022/10/09 01:06:18;;;;;;;4.30;2.20;;;;;;;8.76;100.00;101319.21;5048279;58;1139422;-67
2022/10/09 01:11:29;;;;;;;4.97;2.67;;;;;;;8.69;100.00;101324.00;4987194;58;1137116;-64
2022/10/09 01:16:40;;;;;;;14.97;3.30;;;;;;;8.61;100.00;101329.31;4995647;58;1137191;-70
2022/10/09 01:21:50;;;;;;;4.97;2.30;;;;;;;8.52;100.00;101338.60;4995608;58;1139023;-67
2022/10/09 01:27:23;;;;;;;7.00;2.30;;;;;;;8.49;100.00;101337.45;4991595;59;1137304;-66
2022/10/09 01:32:39;;;;;;;4.73;2.20;;;;;;;8.46;100.00;101335.83;4917064;58;1137013;-66
2022/10/09 01:37:48;;;;;;;7.33;2.03;;;;;;;8.43;100.00;101347.00;4921126;58;1137015;-65
2022/10/09 01:42:53;;;;;;;5.57;1.83;;;;;;;8.42;100.00;101345.30;4917568;58;1137243;-69
2022/10/09 01:48:00;;;;;;;4.20;1.83;;;;;;;8.43;100.00;101352.28;5016296;57;1134999;-67
2022/10/09 01:53:13;;;;;;;3.27;1.50;;;;;;;8.41;100.00;101353.67;5081555;57;1134882;-66
2022/10/09 01:58:39;;;;;;;2.92;2.12;;;;;;;8.44;100.00;101355.30;5081966;57;1139015;-66
2022/10/09 02:03:49;;;;;;;6.43;1.87;;;;;;;8.42;100.00;101370.34;5081495;57;1139020;-63
2022/10/09 02:08:56;;;;;;;6.03;1.87;;;;;;;8.40;100.00;101376.20;5081604;57;1139047;-65
2022/10/09 02:14:03;;;;;;;1.83;1.40;;;;;;;8.36;100.00;101378.14;5081482;57;1139039;-68
2022/10/09 02:19:45;;;;;;;4.50;1.57;;;;;;;8.31;100.00;101380.13;5081191;57;1139271;-68
2022/10/09 02:24:52;;;;;;;5.43;1.50;;;;;;;8.28;100.00;101390.83;5081241;57;1139205;-68
2022/10/09 02:30:00;;;;;;;3.60;1.27;;;;;;;8.28;100.00;101392.62;5137772;57;1139318;-67
2022/10/09 02:35:06;;;;;;;4.67;1.40;;;;;;;8.27;100.00;101395.72;5165160;57;1139004;-67
2022/10/09 02:40:12;;;;;;;8.80;2.07;;;;;;;8.28;100.00;101403.16;5160085;57;1139128;-65
2022/10/09 02:45:18;;;;;;;6.23;2.03;;;;;;;8.26;100.00;101407.66;5165359;57;1139075;-64
2022/10/09 02:50:24;;;;;;;8.20;1.73;;;;;;;8.26;100.00;101407.66;5104003;57;1139327;-68
2022/10/09 02:55:31;;;;;;;16.00;2.37;;;;;;;8.21;100.00;101407.92;5081264;58;1139041;-65
2022/10/09 03:00:39;;;;;;;2.87;1.23;;;;;;;8.12;100.00;101406.62;5081142;57;1141190;-67
2022/10/09 03:05:45;;;;;;;1.73;1.10;;;;;;;8.16;100.00;101423.13;5081123;58;1139037;-66
2022/10/09 03:10:50;;;;;;;3.60;1.57;;;;;;;8.12;100.00;101427.69;5081106;57;1139286;-67
2022/10/09 03:16:12;;;;;;;6.10;1.80;;;;;;;8.00;100.00;101436.72;5080951;58;1139293;-67
2022/10/09 03:21:24;;;;;;;11.90;2.17;;;;;;;8.00;100.00;101436.72;5112230;57;1139017;-69
2022/10/09 03:26:30;;;;;;;5.60;1.72;;;;;;;7.96;100.00;101449.65;5165489;56;1141086;-70
2022/10/09 03:31:37;;;;;;;11.53;3.30;;;;;;;7.90;100.00;101460.06;5080737;57;1139030;-63
2022/10/09 03:36:42;;;;;;;6.97;2.03;;;;;;;7.82;100.00;101470.12;5081179;58;1141120;-66
2022/10/09 03:41:48;;;;;;;7.23;2.03;;;;;;;7.78;100.00;101480.44;5119608;57;1139035;-66
2022/10/09 03:46:54;;;;;;;4.28;1.67;;;;;;;7.73;100.00;101485.94;5149903;57;1136841;-69
2022/10/09 03:52:00;;;;;;;9.47;2.03;;;;;;;7.71;100.00;101490.88;5150080;57;1137240;-68
2022/10/09 03:57:06;;;;;;;4.47;1.47;;;;;;;7.66;100.00;101500.78;5148317;56;1136888;-66
2022/10/09 04:02:12;;;;;;;5.03;2.10;;;;;;;7.64;100.00;101497.37;5145331;56;1137052;-64
2022/10/09 04:07:18;;;;;;;8.47;2.53;;;;;;;7.62;100.00;101506.69;5145315;57;1136951;-65
2022/10/09 04:12:24;;;;;;;9.47;2.40;;;;;;;7.60;100.00;101509.86;5150789;57;1136898;-68
2022/10/09 04:17:29;;;;;;;6.10;1.73;;;;;;;7.58;100.00;101514.34;5158662;57;1136929;-65
2022/10/09 04:22:35;;;;;;;12.60;2.43;;;;;;;7.57;100.00;101513.09;5164880;57;1136989;-69
2022/10/09 04:27:41;;;;;;;6.00;2.20;;;;;;;7.55;100.00;101517.12;5147010;57;1139034;-64
2022/10/09 04:32:47;;;;;;;6.10;2.30;;;;;;;7.55;100.00;101517.12;5080913;58;1136875;-66
2022/10/09 04:37:53;;;;;;;7.40;2.27;;;;;;;7.56;100.00;101523.23;5080914;57;1137239;-63
2022/10/09 04:43:00;;;;;;;4.67;2.57;;;;;;;7.54;100.00;101529.03;5104505;57;1137005;-65
2022/10/09 04:48:06;;;;;;;10.27;2.17;;;;;;;7.53;100.00;101528.64;5142378;57;1136929;-66
2022/10/09 04:53:13;;;;;;;7.07;2.70;;;;;;;7.54;100.00;101534.30;5080977;57;1139113;-66
2022/10/09 04:58:19;;;;;;;6.60;3.47;;;;;;;7.59;100.00;101535.79;5080744;58;1136968;-67
2022/10/09 05:03:25;;;;;;;4.73;2.77;;;;;;;7.68;100.00;101542.37;5076667;58;1136957;-68
2022/10/09 05:08:33;;;;;;;4.57;2.80;;;;;;;7.74;100.00;101542.08;5076208;58;1137046;-62
2022/10/09 05:13:43;;;;;;;5.77;2.73;;;;;;;7.81;100.00;101549.20;5087103;57;1136911;-64
2022/10/09 05:18:54;;;;;;;6.63;2.80;;;;;;;7.91;100.00;101551.32;5068019;58;1134863;-69
2022/10/09 05:24:01;;;;;;;10.13;3.80;;;;;;;8.02;100.00;101562.16;5068544;58;1139004;-65
2022/10/09 05:29:07;;;;;;;10.93;4.30;;;;;;;8.09;100.00;101558.30;5068575;58;1141019;-68
2022/10/09 05:34:13;;;;;;;6.05;1.90;;;;;;;8.04;100.00;101566.89;5070781;58;1140978;-68
2022/10/09 05:39:18;;;;;;;8.60;2.67;;;;;;;7.89;100.00;101579.98;5066944;58;1139068;-64
2022/10/09 05:44:24;;;;;;;10.83;2.10;;;;;;;7.78;100.00;101580.52;5083430;57;1139058;-66
2022/10/09 05:49:30;;;;;;;4.87;2.50;;;;;;;7.76;100.00;101591.58;5109116;57;1141226;-68
2022/10/09 05:54:36;;;;;;;7.07;1.53;;;;;;;7.68;100.00;101605.56;4998893;59;1139121;-65
2022/10/09 05:59:41;;;;;;;5.72;3.42;;;;;;;7.56;100.00;101611.42;4998196;58;1139033;-62
2022/10/09 06:04:47;;;;;;;5.80;3.20;;;;;;;7.51;100.00;101612.95;5005022;58;1139100;-68
2022/10/09 06:09:53;;;;;;;7.63;2.70;;;;;;;7.49;100.00;101617.42;5093748;57;1139127;-67
2022/10/09 06:14:59;;;;;;;10.40;2.13;;;;;;;7.51;100.00;101631.84;5121944;57;1138995;-64
2022/10/09 06:20:06;;;;;;;4.00;2.37;;;;;;;7.55;100.00;101643.48;5080908;58;1141269;-67
2022/10/09 06:25:12;;;;;;;6.80;1.77;;;;;;;7.63;100.00;101651.03;5045643;58;1139012;-64
2022/10/09 06:30:17;;;;;;;17.77;2.90;;;;;;;7.74;100.00;101653.53;5080188;58;1139069;-69
2022/10/09 06:35:23;;;;;;;6.50;3.00;;;;;;;7.78;100.00;101663.92;5045659;58;1140498;-67
2022/10/09 06:40:29;;;;;;;11.63;4.27;;;;;;;7.79;100.00;101670.44;5077368;58;1139372;-67
2022/10/09 06:45:37;;;;;;;12.23;3.80;;;;;;;7.83;100.00;101673.76;5144833;57;1141084;-67
2022/10/09 06:50:43;;;;;;;6.07;2.83;;;;;;;7.82;100.00;101679.95;5095607;57;1141092;-69
2022/10/09 06:55:58;;;;;;;8.83;4.37;;;;;;;7.82;100.00;101686.53;5078269;57;1139071;-65
2022/10/09 07:01:10;;;;;;;12.83;4.80;;;;;;;7.80;100.00;101689.23;5078091;57;1139038;-65
2022/10/09 07:06:18;;;;;;;6.50;3.77;;;;;;;7.88;100.00;101696.80;5105595;57;1141091;-68
2022/10/09 07:11:29;;;;;;;13.30;4.33;;;;;;;7.90;100.00;101706.34;5158192;56;1139067;-65
2022/10/09 07:16:39;;;;;;;10.17;4.37;;;;;;;7.86;100.00;101718.39;5082557;57;1141097;-70
2022/10/09 07:21:47;;;;;;;10.67;3.67;;;;;;;7.88;100.00;101720.50;5042253;57;1141168;-68
2022/10/09 07:26:56;;;;;;;6.43;3.23;;;;;;;7.79;100.00;101728.37;5039700;57;1141116;-65
2022/10/09 07:32:01;;;;;;;4.50;3.53;;;;;;;7.82;100.00;101736.58;5039877;58;1139070;-64
2022/10/09 07:37:07;;;;;;;6.53;3.87;;;;;;;7.84;100.00;101743.48;5039677;58;1139129;-65
2022/10/09 07:42:12;;;;;;;12.00;4.73;;;;;;;7.82;100.00;101744.02;5050082;57;1139034;-66
2022/10/09 07:47:18;;;;;;;12.77;4.83;;;;;;;7.78;100.00;101754.32;5113363;57;1140938;-70
2022/10/09 07:52:25;;;;;;;9.63;4.33;;;;;;;7.80;100.00;101759.03;5039720;57;1141243;-67
2022/10/09 07:57:31;;;;;;;10.17;4.30;;;;;;;7.81;100.00;101769.10;5039180;58;1139010;-65
2022/10/09 08:02:36;;;;;;;8.87;3.47;;;;;;;7.85;100.00;101768.90;5071098;57;1141188;-67
2022/10/09 08:07:42;;;;;;;9.90;4.90;;;;;;;7.91;100.00;101781.80;5122308;57;1139024;-70
2022/10/09 08:12:49;;;;;;;10.93;4.43;;;;;;;7.94;100.00;101776.39;5127414;57;1137392;-67
2022/10/09 08:17:55;;;;;;;11.63;4.40;;;;;;;8.00;100.00;101783.98;5059826;58;1138923;-64
2022/10/09 08:23:02;;;;;;;12.37;4.27;;;;;;;8.05;100.00;101784.64;5071985;58;1138936;-65
2022/10/09 08:28:08;;;;;;;6.13;4.13;;;;;;;8.06;100.00;101792.09;5071576;58;1139105;-69
2022/10/09 08:33:14;;;;;;;9.10;4.83;;;;;;;8.09;100.00;101787.53;5071019;58;1137193;-69
2022/10/09 08:38:21;;;;;;;9.27;4.13;;;;;;;8.18;100.00;101802.50;5013161;58;1137024;-68
2022/10/09 08:43:42;;;;;;;9.57;4.00;;;;;;;8.22;100.00;101798.34;5069069;57;1137154;-68
2022/10/09 08:48:50;;;;;;;11.73;4.77;;;;;;;8.26;100.00;101809.57;5134760;57;1136965;-62
2022/10/09 08:54:03;;;;;;;7.40;4.10;;;;;;;8.32;100.00;101810.64;5127536;57;1139245;-67
2022/10/09 08:59:12;;;;;;;12.40;4.85;;;;;;;8.42;100.00;101815.39;5111382;57;1137050;-66
2022/10/09 09:04:31;;;;;;;16.83;5.37;;;;;;;8.57;100.00;101810.30;5096970;56;1139070;-67
2022/10/09 09:09:48;;;;;;;11.17;3.60;;;;;;;8.66;100.00;101804.60;5176851;57;21149;-65
2022/10/09 09:15:11;;;;;;;16.07;4.80;;;;;;;8.83;100.00;101807.73;5126152;57;1136936;-68
2022/10/09 09:20:30;;;;;;;12.47;3.90;;;;;;;8.97;100.00;101810.06;5087633;56;1141232;-68
2022/10/09 09:25:39;;;;;;;7.80;3.73;;;;;;;9.10;100.00;101811.61;5013194;58;1141031;-64
2022/10/09 09:30:50;;;;;;;9.63;4.07;;;;;;;9.16;100.00;101802.08;4947959;59;1139155;-67
2022/10/09 09:36:19;;;;;;;7.57;4.60;;;;;;;9.28;100.00;101812.00;4905117;60;1138983;-66
2022/10/09 09:41:27;;;;;;;14.57;4.23;;;;;;;9.35;100.00;101809.41;4965409;59;1139008;-69
2022/10/09 09:46:37;;;;;;;9.10;3.60;;;;;;;9.41;100.00;101818.34;5112097;56;1141209;-70
2022/10/09 09:51:43;;;;;;;10.33;4.17;;;;;;;9.57;100.00;101803.87;5107108;56;1139238;-67
2022/10/09 09:56:55;;;;;;;8.43;3.98;;;;;;;9.63;100.00;101814.09;5148314;56;1141096;-71
2022/10/09 10:02:20;;;;;;;9.77;3.80;;;;;;;9.75;100.00;101827.99;5146347;56;1139297;-71
2022/10/09 10:07:38;;;;;;;8.70;3.43;;;;;;;9.82;100.00;101835.96;5138787;57;1139214;-69
2022/10/09 10:12:47;;;;;;;12.87;4.43;;;;;;;9.91;100.00;101824.53;5156486;57;1139013;-68
2022/10/09 10:18:03;;;;;;;119.27;57.07;;;;;;;10.09;100.00;101830.97;5105684;57;1141118;-67
2022/10/09 10:23:26;;;;;;;62.43;40.90;;;;;;;10.28;100.00;101824.70;5076684;58;1147393;-70
2022/10/09 10:28:36;;;;;;;74.27;55.70;;;;;;;10.43;100.00;101826.49;5037508;58;1143480;-68
2022/10/09 10:33:45;;;;;;;124.20;75.07;;;;;;;10.63;100.00;101827.55;5011426;58;1143257;-72
2022/10/09 10:39:00;;;;;;;16.30;7.43;;;;;;;10.69;100.00;101829.01;4994669;59;1145348;-69
2022/10/09 10:44:10;;;;;;;;;;;;;;;11.07;100.00;101826.30;5072711;57;1141214;-68
2022/10/09 10:49:22;;;;;;;14.93;7.43;;;;;;;11.38;100.00;101830.63;5077672;58;976358;-64
2022/10/09 10:54:44;;;;;;;14.00;4.73;;;;;;;11.70;100.00;101830.00;5137574;56;1139723;-69
2022/10/09 11:00:05;;;;;;;7.20;3.47;;;;;;;12.00;100.00;101818.00;5158865;56;1141061;-68
2022/10/09 11:05:26;;;;;;;6.30;3.52;;;;;;;12.20;100.00;101824.70;5163348;56;1141277;-68
2022/10/09 11:10:43;;;;;;;13.47;3.30;;;;;;;12.38;100.00;101822.17;5151481;56;1140969;-66
2022/10/09 11:16:12;;;;;;;8.50;5.07;;;;;;;12.54;100.00;101818.91;5080049;57;1143190;-64
2022/10/09 11:21:32;;;;;;;7.27;3.40;;;;;;;12.70;100.00;101820.08;5079047;57;1141084;-69
2022/10/09 11:27:18;;;;;;;8.30;2.73;;;;;;;12.89;100.00;101821.05;5078637;57;1141103;-67
2022/10/09 11:32:28;;;;;;;12.20;3.97;;;;;;;12.95;100.00;101816.20;5110437;57;1140982;-66
2022/10/09 11:37:38;;;;;;;6.67;3.37;;;;;;;13.19;100.00;101807.55;5144908;57;1143115;-63
2022/10/09 11:42:46;;;;;;;9.30;2.27;;;;;;;13.53;100.00;101810.08;5140491;57;1141089;-71
2022/10/09 11:48:11;;;;;;;5.03;2.60;;;;;;;13.89;100.00;101798.67;5164994;57;1141373;-70
2022/10/09 11:53:21;;;;;;;8.27;2.60;;;;;;;14.12;100.00;101792.54;5121414;57;1141606;-70
2022/10/09 11:58:28;;;;;;;11.70;3.10;;;;;;;14.32;100.00;101798.61;5100517;57;1141133;-64
2022/10/09 12:03:37;;;;;;;9.30;3.03;;;;;;;14.49;100.00;101789.42;5081061;58;1141172;-71
2022/10/09 12:09:05;;;;;;;8.87;2.50;;;;;;;14.56;100.00;101780.00;5081156;57;1139120;-67
2022/10/09 12:14:14;;;;;;;7.17;2.17;;;;;;;14.72;99.87;101791.69;5103284;57;1139144;-67
2022/10/09 12:19:33;;;;;;;5.20;1.77;;;;;;;14.52;95.51;101787.84;5130039;57;1137399;-69
2022/10/09 12:24:43;;;;;;;6.57;1.97;;;;;;;14.44;96.88;101787.57;5152348;56;1136989;-66
2022/10/09 12:29:58;;;;;;;4.70;2.17;;;;;;;14.51;95.77;101781.33;5099785;57;1136865;-67
2022/10/09 12:35:27;;;;;;;5.37;2.73;;;;;;;14.67;94.76;101776.05;5081080;58;1137062;-64
2022/10/09 12:40:34;;;;;;;8.83;1.77;;;;;;;14.97;93.15;101776.88;5138866;57;1139067;-69
2022/10/09 12:45:47;;;;;;;4.23;1.57;;;;;;;15.22;87.85;101777.20;5165390;57;1139027;-67
2022/10/09 12:50:54;;;;;;;6.47;1.67;;;;;;;15.30;85.29;101780.11;5158657;57;1139287;-70
2022/10/09 12:56:02;;;;;;;3.83;1.40;;;;;;;15.35;83.80;101777.95;5165286;57;1139166;-68
2022/10/09 13:01:12;;;;;;;4.20;1.60;;;;;;;15.42;84.27;101779.67;5165047;57;1139109;-70
2022/10/09 13:06:21;;;;;;;5.95;1.70;;;;;;;15.53;82.96;101774.33;5165020;57;1139067;-66
2022/10/09 13:11:39;;;;;;;5.30;2.50;;;;;;;15.57;82.84;101777.16;5164884;57;1139053;-66
2022/10/09 13:16:47;;;;;;;5.13;2.27;;;;;;;15.60;84.48;101762.23;5097970;57;1139139;-70
2022/10/09 13:22:20;;;;;;;7.80;1.67;;;;;;;15.61;82.75;101765.27;5080938;57;1139040;-69
2022/10/09 13:27:29;;;;;;;;;;;;;;;15.71;83.47;101758.25;5056951;57;1139094;-69
2022/10/09 13:32:34;;;;;;;4.30;1.83;;;;;;;15.87;85.92;101754.36;5122803;57;976345;-68
2022/10/09 13:37:41;;;;;;;4.60;1.53;;;;;;;15.99;81.88;101748.87;5127450;57;1137057;-68
2022/10/09 13:42:53;;;;;;;5.37;1.70;;;;;;;16.05;82.37;101747.03;5132425;56;1139041;-66
2022/10/09 13:48:00;;;;;;;6.23;1.70;;;;;;;16.05;83.10;101739.02;5144214;57;1139032;-71
2022/10/09 13:53:06;;;;;;;7.47;2.13;;;;;;;16.13;80.23;101741.94;5148008;57;1139003;-70
2022/10/09 13:58:12;;;;;;;7.10;2.83;;;;;;;16.12;83.44;101744.23;5144230;57;1139202;-68
2022/10/09 14:03:17;;;;;;;4.40;2.10;;;;;;;16.25;82.79;101744.08;5134358;57;1138996;-66
2022/10/09 14:08:23;;;;;;;4.53;2.20;;;;;;;16.26;81.66;101744.44;5153943;57;1138963;-70
2022/10/09 14:13:30;;;;;;;8.60;3.40;;;;;;;16.31;81.30;101743.59;5152508;57;1139161;-69
2022/10/09 14:18:35;;;;;;;7.50;2.20;;;;;;;16.28;81.11;101738.98;5112078;57;1139099;-70
2022/10/09 14:23:42;;;;;;;2.60;2.40;;;;;;;16.21;78.69;101738.63;5142603;57;1139053;-70
2022/10/09 14:28:48;;;;;;;4.53;1.73;;;;;;;16.09;78.87;101734.30;5135872;56;1139029;-68
2022/10/09 14:33:57;;;;;;;4.47;2.20;;;;;;;16.13;79.00;101731.74;5150833;57;1139148;-69
2022/10/09 14:39:03;;;;;;;7.80;2.07;;;;;;;16.17;79.84;101725.19;5108554;57;1139049;-72
2022/10/09 14:44:10;;;;;;;7.97;3.10;;;;;;;16.35;81.11;101723.65;5147377;57;1137059;-65
2022/10/09 14:49:16;;;;;;;12.33;4.20;;;;;;;16.39;79.17;101728.25;5148674;57;1136205;-71
2022/10/09 14:54:22;;;;;;;8.93;4.33;;;;;;;16.34;79.31;101723.32;5165314;57;1139028;-65
2022/10/09 14:59:27;;;;;;;7.93;4.13;;;;;;;17.16;85.63;101724.84;5165418;57;1136883;-66
2022/10/09 15:04:33;;;;;;;11.37;3.03;;;;;;;17.16;85.63;101724.84;5158740;57;1137439;-70
2022/10/09 15:09:39;;;;;;;8.30;4.67;;;;;;;18.58;79.71;101715.22;5105443;57;1139293;-67
2022/10/09 15:14:45;;;;;;;26.07;14.13;;;;;;;18.81;73.71;101712.22;5146675;56;1136929;-65
2022/10/09 15:19:52;;;;;;;11.97;6.37;;;;;;;18.01;73.82;101724.03;5165321;57;1141179;-69
2022/10/09 15:24:58;;;;;;;21.23;7.73;;;;;;;17.39;74.74;101717.52;5153468;57;1139208;-69
2022/10/09 15:30:04;;;;;;;16.97;9.00;;;;;;;16.90;75.07;101720.89;5093821;57;1139068;-68
2022/10/09 15:35:10;;;;;;;9.50;5.07;;;;;;;16.64;77.07;101716.42;5069899;57;1139026;-71
2022/10/09 15:40:16;;;;;;;11.07;5.87;;;;;;;17.38;77.35;101713.15;5101701;57;1137053;-69
2022/10/09 15:45:22;;;;;;;16.95;10.08;;;;;;;18.29;76.96;101710.31;5118709;57;1139111;-67
2022/10/09 15:50:28;;;;;;;25.97;11.43;;;;;;;18.94;76.07;101707.42;5134678;57;1141206;-69
2022/10/09 15:55:37;;;;;;;60.73;37.42;;;;;;;18.43;74.91;101717.09;5156200;57;1141231;-67
2022/10/09 16:00:48;;;;;;;73.90;45.03;;;;;;;17.66;73.83;101716.95;5155989;57;1141377;-65
2022/10/09 16:05:55;;;;;;;152.30;84.17;;;;;;;16.96;75.61;101710.51;5155871;57;1139085;-67
2022/10/09 16:11:05;;;;;;;67.90;34.70;;;;;;;16.46;76.85;101711.61;5156046;57;1141270;-66
2022/10/09 16:16:16;;;;;;;49.12;23.38;;;;;;;16.02;77.70;101715.77;5151074;57;1143304;-67
2022/10/09 16:21:27;;;;;;;86.93;48.80;;;;;;;15.63;78.47;101720.66;5155692;57;1143517;-66
2022/10/09 16:26:33;;;;;;;51.00;23.47;;;;;;;15.22;78.99;101727.05;5131602;57;1142579;-70
2022/10/09 16:31:38;;;;;;;60.63;29.52;;;;;;;14.81;79.73;101731.58;5125814;57;1143191;-64
2022/10/09 16:36:44;;;;;;;41.77;22.70;;;;;;;14.43;80.43;101736.14;5131499;57;1143425;-67
2022/10/09 16:41:50;;;;;;;27.17;13.67;;;;;;;14.15;81.53;101735.13;5083980;57;1143109;-67
2022/10/09 16:46:56;;;;;;;23.67;12.83;;;;;;;13.92;82.40;101739.44;5128606;57;1143072;-67
2022/10/09 16:52:02;;;;;;;79.80;40.53;;;;;;;13.75;82.81;101744.30;5122846;57;1141760;-68
2022/10/09 16:57:08;;;;;;;162.77;88.67;;;;;;;13.55;83.40;101737.72;5095289;57;1143230;-69
2022/10/09 17:02:15;;;;;;;129.80;80.10;;;;;;;13.33;84.07;101742.35;5104913;57;1145269;-62
2022/10/09 17:07:23;;;;;;;157.70;93.93;;;;;;;13.14;84.53;101747.23;5048584;57;1145293;-66
2022/10/09 17:12:29;;;;;;;105.87;52.43;;;;;;;12.99;85.32;101749.09;5049245;57;1145295;-77
2022/10/09 17:17:37;;;;;;;232.67;128.77;;;;;;;12.91;85.83;101751.44;5128712;57;1145251;-77
2022/10/09 17:22:42;;;;;;;241.20;130.97;;;;;;;12.72;85.76;101751.81;5051790;58;1147360;-76
2022/10/09 17:27:48;;;;;;;192.83;95.83;;;;;;;12.56;86.08;101755.12;5101402;57;1147205;-76
2022/10/09 17:32:54;;;;;;;92.40;45.23;;;;;;;12.53;86.86;101754.84;5165394;57;1145397;-76
2022/10/09 17:38:00;;;;;;;106.47;51.70;;;;;;;12.44;86.41;101752.80;5165607;57;1143312;-76
2022/10/09 17:43:07;;;;;;;151.00;75.60;;;;;;;12.39;87.23;101755.37;5146720;57;1145439;-77
2022/10/09 17:48:13;;;;;;;92.57;46.33;;;;;;;12.38;87.75;101760.30;5105767;57;1145424;-76
2022/10/09 17:53:26;;;;;;;49.15;24.25;;;;;;;12.22;87.15;101755.17;5151979;56;1143228;-70
2022/10/09 17:58:27;;;;;;;58.03;25.60;;;;;;;12.01;87.33;101759.19;5147779;56;1143209;-73
2022/10/09 18:03:33;;;;;;;124.73;61.13;;;;;;;11.81;87.66;101762.63;5140122;56;1143151;-77
2022/10/09 18:08:40;;;;;;;135.83;58.33;;;;;;;11.80;88.33;101760.06;5141709;57;1145254;-71
2022/10/09 18:13:46;;;;;;;97.57;45.80;;;;;;;11.86;88.90;101760.55;5134704;57;1144730;-69
2022/10/09 18:18:52;;;;;;;120.67;54.33;;;;;;;11.87;88.75;101761.40;5149233;57;1143180;-67
2022/10/09 18:23:57;;;;;;;135.27;63.33;;;;;;;11.76;88.42;101765.20;5151307;57;1145482;-70
2022/10/09 18:29:04;;;;;;;173.43;67.60;;;;;;;11.61;88.36;101763.83;5112607;57;1145294;-67
2022/10/09 18:34:11;;;;;;;245.17;95.63;;;;;;;11.46;87.76;101762.13;5081127;57;1145411;-71
2022/10/09 18:39:16;;;;;;;279.07;113.93;;;;;;;11.31;88.40;101764.38;5056633;57;1145345;-66
2022/10/09 18:44:23;;;;;;;447.20;191.67;;;;;;;11.21;88.59;101764.58;5131694;57;1147433;-64
2022/10/09 18:49:31;;;;;;;392.00;165.57;;;;;;;11.24;89.42;101765.25;5086289;57;1147396;-68
2022/10/09 18:54:38;;;;;;;314.97;128.43;;;;;;;11.30;89.18;101771.98;5048770;58;1147438;-68
2022/10/09 18:59:43;;;;;;;181.80;65.30;;;;;;;11.21;88.95;101769.88;5092104;57;1147399;-67
2022/10/09 19:04:49;;;;;;;244.13;90.67;;;;;;;11.02;88.36;101767.94;5131595;57;1145301;-64
2022/10/09 19:09:55;;;;;;;225.80;96.30;;;;;;;10.83;88.43;101765.08;5131775;57;1145083;-67
2022/10/09 19:15:00;;;;;;;269.73;124.33;;;;;;;10.69;88.83;101757.57;5103194;57;1145514;-65
2022/10/09 19:20:07;;;;;;;117.83;52.30;;;;;;;10.54;89.09;101752.20;5048699;57;1145351;-66
2022/10/09 19:25:13;;;;;;;109.33;52.30;;;;;;;10.47;89.57;101752.66;5023484;58;1143491;-67
2022/10/09 19:30:18;;;;;;;154.20;72.93;;;;;;;10.40;90.08;101754.78;5109745;57;1143194;-66
2022/10/09 19:35:24;;;;;;;81.40;35.37;;;;;;;10.32;90.24;101754.38;5131595;57;1143280;-68
2022/10/09 19:40:30;;;;;;;113.63;47.23;;;;;;;10.27;90.31;101758.22;5131711;57;1141128;-65
2022/10/09 19:45:35;;;;;;;51.80;19.23;;;;;;;10.27;90.75;101750.28;5131528;57;1143416;-69
2022/10/09 19:50:43;;;;;;;111.30;43.73;;;;;;;10.17;90.38;101748.14;5117700;57;1141259;-66
2022/10/09 19:55:49;;;;;;;150.70;55.07;;;;;;;10.03;90.02;101752.03;5053171;57;1143328;-68
2022/10/09 20:00:54;;;;;;;54.70;17.70;;;;;;;9.97;90.65;101753.67;5090337;57;1143445;-69
2022/10/09 20:06:05;;;;;;;46.77;19.47;;;;;;;9.96;90.57;101749.80;5131460;57;1139131;-66
2022/10/09 20:11:12;;;;;;;79.80;33.03;;;;;;;9.95;91.09;101751.58;5105741;57;1139209;-70
2022/10/09 20:16:19;;;;;;;43.17;18.90;;;;;;;9.87;91.14;101739.28;5123621;57;1139025;-65
2022/10/09 20:21:25;;;;;;;317.73;126.20;;;;;;;9.81;91.36;101736.95;5131701;57;1139402;-68
2022/10/09 20:26:33;;;;;;;262.90;107.80;;;;;;;9.73;91.46;101737.39;5138490;57;1143506;-66
2022/10/09 20:31:39;;;;;;;93.58;37.05;;;;;;;9.66;91.54;101741.30;5072354;58;1143260;-71
2022/10/09 20:36:45;;;;;;;51.07;22.27;;;;;;;9.65;91.65;101735.63;5072290;58;1139112;-67
2022/10/09 20:41:52;;;;;;;61.03;23.90;;;;;;;9.69;92.03;101743.77;5121415;57;1136977;-67
2022/10/09 20:46:59;;;;;;;146.13;62.60;;;;;;;9.65;92.10;101738.27;5138383;57;1257115;-68
2022/10/09 20:52:05;;;;;;;270.87;122.97;;;;;;;9.65;92.62;101745.33;5134589;56;1143259;-72
2022/10/09 20:57:11;;;;;;;242.97;111.20;;;;;;;9.61;92.99;101747.78;5122621;57;1145282;-69
2022/10/09 21:02:16;;;;;;;54.80;23.97;;;;;;;9.58;93.10;101747.94;5119613;56;1145163;-70
2022/10/09 21:07:22;;;;;;;53.47;22.83;;;;;;;9.55;92.64;101748.09;5117236;57;1141117;-67
2022/10/09 21:12:28;;;;;;;98.13;46.53;;;;;;;9.56;93.22;101749.34;5126172;57;1141056;-71
2022/10/09 21:17:35;;;;;;;65.60;27.83;;;;;;;9.64;93.80;101746.27;5088913;57;1141214;-66
2022/10/09 21:22:41;;;;;;;63.00;23.93;;;;;;;9.62;93.80;101740.24;5083325;57;1141133;-69
2022/10/09 21:27:48;;;;;;;106.67;51.77;;;;;;;9.56;93.90;101747.16;5107113;57;1141413;-69
2022/10/09 21:32:54;;;;;;;111.12;53.58;;;;;;;9.48;94.36;101743.59;5053797;57;1143101;-64
2022/10/09 21:38:00;;;;;;;43.33;18.75;;;;;;;9.43;94.70;101745.65;5047792;58;1143197;-70
2022/10/09 21:43:05;;;;;;;43.90;17.37;;;;;;;9.39;95.71;101739.67;5072898;57;1141094;-70
2022/10/09 21:48:15;;;;;;;37.90;15.03;;;;;;;9.31;96.18;101738.39;5107921;57;1141140;-70
2022/10/09 21:53:20;;;;;;;38.97;18.40;;;;;;;9.24;96.60;101736.52;5048288;58;1141189;-67
2022/10/09 21:58:26;;;;;;;57.83;22.00;;;;;;;9.21;96.76;101731.87;5048763;57;1141363;-71
2022/10/09 22:03:35;;;;;;;46.20;18.10;;;;;;;9.18;96.93;101723.17;5049025;57;1141105;-67
2022/10/09 22:08:41;;;;;;;47.67;23.67;;;;;;;9.18;96.88;101731.55;5118853;57;1141190;-64
2022/10/09 22:13:46;;;;;;;51.90;24.60;;;;;;;9.10;97.04;101734.61;5114810;57;1141158;-72
2022/10/09 22:18:52;;;;;;;39.40;18.10;;;;;;;9.09;97.26;101726.77;5048938;58;1141143;-67
2022/10/09 22:23:59;;;;;;;36.03;17.47;;;;;;;9.08;97.15;101722.42;5048770;58;1141160;-66
2022/10/09 22:29:05;;;;;;;39.80;19.60;;;;;;;9.05;97.66;101710.70;5057629;58;1141389;-64
2022/10/09 22:34:11;;;;;;;36.97;16.70;;;;;;;9.01;97.71;101707.36;5068441;58;1141197;-72
2022/10/09 22:39:17;;;;;;;21.53;9.83;;;;;;;8.93;97.97;101700.79;5068353;58;1141162;-71
2022/10/09 22:44:22;;;;;;;53.97;24.03;;;;;;;8.92;97.84;101704.36;5068259;58;1139067;-71
2022/10/09 22:49:28;;;;;;;41.23;19.37;;;;;;;8.84;98.22;101691.58;5024639;58;1141220;-69
2022/10/09 22:54:33;;;;;;;23.42;12.28;;;;;;;8.74;98.55;101698.23;4987085;58;1141101;-68
2022/10/09 22:59:39;;;;;;;23.90;10.67;;;;;;;8.66;99.12;101703.06;4987243;58;1141258;-66
2022/10/09 23:04:45;;;;;;;25.50;12.30;;;;;;;8.65;99.15;101708.80;5052619;58;1141233;-69
2022/10/09 23:09:51;;;;;;;32.27;13.37;;;;;;;8.66;99.08;101710.52;5068160;58;1141175;-69